sensor_id;sensor_type;location;lat;lon;timestamp;P1;durP1;ratioP1;P2;durP2;ratioP2
58069;SDS011;43863;52.256;21.048;2022-08-03T00:00:09;33.50;;;21.77;;
58069;SDS011;43863;52.256;21.048;2022-08-03T00:03:29;34.95;;;21.15;;
58069;SDS011;43863;52.256;21.048;2022-08-03T00:06:54;32.35;;;20.33;;
58069;SDS011;43863;52.256;21.048;2022-08-03T00:09:30;35.75;;;20.27;;
58069;SDS011;43863;52.256;21.048;2022-08-03T00:19:20;31.75;;;19.40;;
58069;SDS011;43863;52.256;21.048;2022-08-03T00:22:01;33.10;;;19.70;;
58069;SDS011;43863;52.256;21.048;2022-08-03T00:24:35;29.08;;;20.65;;
58069;SDS011;43863;52.256;21.048;2022-08-03T00:27:22;35.33;;;19.85;;
58069;SDS011;43863;52.256;21.048;2022-08-03T00:29:54;34.22;;;20.67;;
58069;SDS011;43863;52.256;21.048;2022-08-03T00:32:29;32.58;;;21.73;;
58069;SDS011;43863;52.256;21.048;2022-08-03T00:35:14;36.45;;;22.85;;
58069;SDS011;43863;52.256;21.048;2022-08-03T00:38:40;36.03;;;22.10;;
58069;SDS011;43863;52.256;21.048;2022-08-03T00:51:02;41.05;;;24.80;;
58069;SDS011;43863;52.256;21.048;2022-08-03T00:53:31;38.22;;;24.60;;
58069;SDS011;43863;52.256;21.048;2022-08-03T00:55:59;37.28;;;24.63;;
58069;SDS011;43863;52.256;21.048;2022-08-03T00:58:29;41.33;;;26.23;;
58069;SDS011;43863;52.256;21.048;2022-08-03T01:01:00;37.95;;;25.60;;
58069;SDS011;43863;52.256;21.048;2022-08-03T01:03:33;38.80;;;24.20;;
58069;SDS011;43863;52.256;21.048;2022-08-03T01:08:53;46.80;;;30.85;;
58069;SDS011;43863;52.256;21.048;2022-08-03T01:14:50;51.45;;;34.33;;
58069;SDS011;43863;52.256;21.048;2022-08-03T01:17:24;55.15;;;34.50;;
58069;SDS011;43863;52.256;21.048;2022-08-03T01:20:10;50.03;;;34.15;;
58069;SDS011;43863;52.256;21.048;2022-08-03T01:25:33;59.55;;;35.22;;
58069;SDS011;43863;52.256;21.048;2022-08-03T01:28:32;53.17;;;33.47;;
58069;SDS011;43863;52.256;21.048;2022-08-03T01:31:14;47.47;;;30.83;;
58069;SDS011;43863;52.256;21.048;2022-08-03T01:33:49;48.78;;;30.85;;
58069;SDS011;43863;52.256;21.048;2022-08-03T01:36:25;52.92;;;30.83;;
58069;SDS011;43863;52.256;21.048;2022-08-03T01:39:03;50.75;;;31.33;;
58069;SDS011;43863;52.256;21.048;2022-08-03T01:41:38;51.65;;;32.22;;
58069;SDS011;43863;52.256;21.048;2022-08-03T01:44:11;49.22;;;32.85;;
58069;SDS011;43863;52.256;21.048;2022-08-03T01:46:57;49.50;;;32.65;;
58069;SDS011;43863;52.256;21.048;2022-08-03T01:49:27;52.28;;;32.45;;
58069;SDS011;43863;52.256;21.048;2022-08-03T01:51:58;53.10;;;33.00;;
58069;SDS011;43863;52.256;21.048;2022-08-03T01:54:35;53.20;;;32.97;;
58069;SDS011;43863;52.256;21.048;2022-08-03T01:57:07;54.08;;;32.53;;
58069;SDS011;43863;52.256;21.048;2022-08-03T01:59:36;51.60;;;31.60;;
58069;SDS011;43863;52.256;21.048;2022-08-03T02:02:09;49.33;;;31.52;;
58069;SDS011;43863;52.256;21.048;2022-08-03T02:05:02;49.30;;;31.75;;
58069;SDS011;43863;52.256;21.048;2022-08-03T02:07:38;53.83;;;31.90;;
58069;SDS011;43863;52.256;21.048;2022-08-03T02:10:08;49.80;;;30.23;;
58069;SDS011;43863;52.256;21.048;2022-08-03T02:12:38;49.20;;;32.80;;
58069;SDS011;43863;52.256;21.048;2022-08-03T02:15:13;51.05;;;30.50;;
58069;SDS011;43863;52.256;21.048;2022-08-03T02:17:43;52.10;;;31.33;;
58069;SDS011;43863;52.256;21.048;2022-08-03T02:22:42;51.60;;;32.97;;
58069;SDS011;43863;52.256;21.048;2022-08-03T02:25:15;49.92;;;31.17;;
58069;SDS011;43863;52.256;21.048;2022-08-03T02:27:50;50.83;;;31.98;;
58069;SDS011;43863;52.256;21.048;2022-08-03T02:30:21;49.65;;;31.17;;
58069;SDS011;43863;52.256;21.048;2022-08-03T02:32:57;48.28;;;31.90;;
58069;SDS011;43863;52.256;21.048;2022-08-03T02:35:31;43.73;;;29.37;;
58069;SDS011;43863;52.256;21.048;2022-08-03T02:38:06;43.47;;;27.88;;
58069;SDS011;43863;52.256;21.048;2022-08-03T02:40:38;41.13;;;27.50;;
58069;SDS011;43863;52.256;21.048;2022-08-03T02:43:11;64.05;;;41.63;;
58069;SDS011;43863;52.256;21.048;2022-08-03T02:45:46;46.35;;;35.28;;
58069;SDS011;43863;52.256;21.048;2022-08-03T02:48:19;42.30;;;28.95;;
58069;SDS011;43863;52.256;21.048;2022-08-03T02:50:50;51.25;;;36.05;;
58069;SDS011;43863;52.256;21.048;2022-08-03T02:53:20;40.63;;;28.60;;
58069;SDS011;43863;52.256;21.048;2022-08-03T02:55:50;49.65;;;33.40;;
58069;SDS011;43863;52.256;21.048;2022-08-03T02:58:20;37.22;;;25.52;;
58069;SDS011;43863;52.256;21.048;2022-08-03T03:00:51;41.67;;;27.20;;
58069;SDS011;43863;52.256;21.048;2022-08-03T03:03:20;41.45;;;30.10;;
58069;SDS011;43863;52.256;21.048;2022-08-03T03:05:52;41.90;;;28.55;;
58069;SDS011;43863;52.256;21.048;2022-08-03T03:08:25;36.58;;;27.25;;
58069;SDS011;43863;52.256;21.048;2022-08-03T03:10:56;37.45;;;27.15;;
58069;SDS011;43863;52.256;21.048;2022-08-03T03:13:29;39.20;;;27.40;;
58069;SDS011;43863;52.256;21.048;2022-08-03T03:16:01;37.72;;;27.40;;
58069;SDS011;43863;52.256;21.048;2022-08-03T03:18:31;36.42;;;25.30;;
58069;SDS011;43863;52.256;21.048;2022-08-03T03:21:03;40.83;;;27.10;;
58069;SDS011;43863;52.256;21.048;2022-08-03T03:23:31;37.30;;;25.50;;
58069;SDS011;43863;52.256;21.048;2022-08-03T03:26:04;37.47;;;25.60;;
58069;SDS011;43863;52.256;21.048;2022-08-03T03:28:33;38.10;;;27.30;;
58069;SDS011;43863;52.256;21.048;2022-08-03T03:31:08;39.17;;;26.80;;
58069;SDS011;43863;52.256;21.048;2022-08-03T03:33:37;34.58;;;24.70;;
58069;SDS011;43863;52.256;21.048;2022-08-03T03:36:06;40.80;;;26.17;;
58069;SDS011;43863;52.256;21.048;2022-08-03T03:38:39;58.33;;;26.95;;
58069;SDS011;43863;52.256;21.048;2022-08-03T03:41:08;47.53;;;27.88;;
58069;SDS011;43863;52.256;21.048;2022-08-03T03:43:36;49.85;;;27.15;;
58069;SDS011;43863;52.256;21.048;2022-08-03T03:46:04;44.60;;;25.70;;
58069;SDS011;43863;52.256;21.048;2022-08-03T03:48:32;41.92;;;25.67;;
58069;SDS011;43863;52.256;21.048;2022-08-03T03:51:02;38.58;;;26.50;;
58069;SDS011;43863;52.256;21.048;2022-08-03T03:53:30;32.38;;;23.77;;
58069;SDS011;43863;52.256;21.048;2022-08-03T03:55:58;34.92;;;24.70;;
58069;SDS011;43863;52.256;21.048;2022-08-03T03:58:31;36.97;;;24.70;;
58069;SDS011;43863;52.256;21.048;2022-08-03T04:01:02;38.67;;;25.67;;
58069;SDS011;43863;52.256;21.048;2022-08-03T04:03:31;39.95;;;25.77;;
58069;SDS011;43863;52.256;21.048;2022-08-03T04:06:00;43.88;;;26.73;;
58069;SDS011;43863;52.256;21.048;2022-08-03T04:08:47;36.30;;;24.77;;
58069;SDS011;43863;52.256;21.048;2022-08-03T04:11:35;36.75;;;23.65;;
58069;SDS011;43863;52.256;21.048;2022-08-03T04:14:08;31.60;;;22.92;;
58069;SDS011;43863;52.256;21.048;2022-08-03T04:16:47;37.85;;;26.35;;
58069;SDS011;43863;52.256;21.048;2022-08-03T04:20:03;31.83;;;22.52;;
58069;SDS011;43863;52.256;21.048;2022-08-03T04:22:15;34.63;;;24.27;;
58069;SDS011;43863;52.256;21.048;2022-08-03T04:25:21;45.72;;;29.50;;
58069;SDS011;43863;52.256;21.048;2022-08-03T04:30:58;41.67;;;28.50;;
58069;SDS011;43863;52.256;21.048;2022-08-03T04:33:28;32.15;;;25.08;;
58069;SDS011;43863;52.256;21.048;2022-08-03T04:35:59;35.28;;;25.40;;
58069;SDS011;43863;52.256;21.048;2022-08-03T04:38:30;32.35;;;24.50;;
58069;SDS011;43863;52.256;21.048;2022-08-03T04:41:03;32.45;;;24.73;;
58069;SDS011;43863;52.256;21.048;2022-08-03T04:43:31;33.38;;;24.77;;
58069;SDS011;43863;52.256;21.048;2022-08-03T04:46:00;39.30;;;27.02;;
58069;SDS011;43863;52.256;21.048;2022-08-03T04:48:30;33.60;;;25.85;;
58069;SDS011;43863;52.256;21.048;2022-08-03T04:51:02;33.60;;;25.10;;
58069;SDS011;43863;52.256;21.048;2022-08-03T04:53:32;37.33;;;26.48;;
58069;SDS011;43863;52.256;21.048;2022-08-03T04:56:06;33.17;;;25.52;;
58069;SDS011;43863;52.256;21.048;2022-08-03T04:58:34;30.95;;;25.52;;
58069;SDS011;43863;52.256;21.048;2022-08-03T05:01:02;35.33;;;27.15;;
58069;SDS011;43863;52.256;21.048;2022-08-03T05:03:36;41.10;;;27.15;;
58069;SDS011;43863;52.256;21.048;2022-08-03T05:06:05;35.10;;;27.05;;
58069;SDS011;43863;52.256;21.048;2022-08-03T05:09:27;37.47;;;26.40;;
58069;SDS011;43863;52.256;21.048;2022-08-03T05:12:17;33.83;;;26.98;;
58069;SDS011;43863;52.256;21.048;2022-08-03T05:14:46;39.72;;;27.00;;
58069;SDS011;43863;52.256;21.048;2022-08-03T05:17:13;38.33;;;29.60;;
58069;SDS011;43863;52.256;21.048;2022-08-03T05:19:42;44.40;;;33.45;;
58069;SDS011;43863;52.256;21.048;2022-08-03T05:22:12;38.30;;;28.97;;
58069;SDS011;43863;52.256;21.048;2022-08-03T05:24:41;36.97;;;28.27;;
58069;SDS011;43863;52.256;21.048;2022-08-03T05:27:11;41.92;;;28.58;;
58069;SDS011;43863;52.256;21.048;2022-08-03T05:29:46;39.72;;;30.20;;
58069;SDS011;43863;52.256;21.048;2022-08-03T05:32:17;38.60;;;30.77;;
58069;SDS011;43863;52.256;21.048;2022-08-03T05:34:45;39.30;;;28.48;;
58069;SDS011;43863;52.256;21.048;2022-08-03T05:37:14;40.42;;;29.55;;
58069;SDS011;43863;52.256;21.048;2022-08-03T05:39:42;39.90;;;29.20;;
58069;SDS011;43863;52.256;21.048;2022-08-03T05:42:10;41.58;;;30.42;;
58069;SDS011;43863;52.256;21.048;2022-08-03T05:44:41;40.42;;;31.40;;
58069;SDS011;43863;52.256;21.048;2022-08-03T05:47:09;43.78;;;32.97;;
58069;SDS011;43863;52.256;21.048;2022-08-03T05:49:38;37.47;;;30.25;;
58069;SDS011;43863;52.256;21.048;2022-08-03T05:52:06;43.60;;;30.63;;
58069;SDS011;43863;52.256;21.048;2022-08-03T05:54:44;44.53;;;32.25;;
58069;SDS011;43863;52.256;21.048;2022-08-03T05:57:24;39.28;;;31.95;;
58069;SDS011;43863;52.256;21.048;2022-08-03T05:59:53;37.95;;;29.95;;
58069;SDS011;43863;52.256;21.048;2022-08-03T06:02:25;38.22;;;29.35;;
58069;SDS011;43863;52.256;21.048;2022-08-03T06:04:53;43.15;;;29.80;;
58069;SDS011;43863;52.256;21.048;2022-08-03T06:07:21;43.72;;;30.45;;
58069;SDS011;43863;52.256;21.048;2022-08-03T06:09:49;37.28;;;29.08;;
58069;SDS011;43863;52.256;21.048;2022-08-03T06:12:37;38.65;;;31.00;;
58069;SDS011;43863;52.256;21.048;2022-08-03T06:15:07;43.63;;;31.13;;
58069;SDS011;43863;52.256;21.048;2022-08-03T06:17:47;37.45;;;30.25;;
58069;SDS011;43863;52.256;21.048;2022-08-03T06:20:16;36.15;;;28.00;;
58069;SDS011;43863;52.256;21.048;2022-08-03T06:22:46;39.50;;;28.10;;
58069;SDS011;43863;52.256;21.048;2022-08-03T06:25:17;45.72;;;29.30;;
58069;SDS011;43863;52.256;21.048;2022-08-03T06:27:47;44.17;;;30.10;;
58069;SDS011;43863;52.256;21.048;2022-08-03T06:30:15;48.38;;;33.03;;
58069;SDS011;43863;52.256;21.048;2022-08-03T06:32:47;39.25;;;30.33;;
58069;SDS011;43863;52.256;21.048;2022-08-03T06:37:47;39.00;;;29.65;;
58069;SDS011;43863;52.256;21.048;2022-08-03T06:40:17;38.40;;;29.60;;
58069;SDS011;43863;52.256;21.048;2022-08-03T06:42:48;39.38;;;28.98;;
58069;SDS011;43863;52.256;21.048;2022-08-03T06:45:16;39.67;;;30.13;;
58069;SDS011;43863;52.256;21.048;2022-08-03T06:47:44;41.58;;;32.15;;
58069;SDS011;43863;52.256;21.048;2022-08-03T06:50:12;49.58;;;31.98;;
58069;SDS011;43863;52.256;21.048;2022-08-03T06:52:44;36.17;;;29.58;;
58069;SDS011;43863;52.256;21.048;2022-08-03T06:55:12;45.47;;;31.80;;
58069;SDS011;43863;52.256;21.048;2022-08-03T06:57:40;45.83;;;32.45;;
58069;SDS011;43863;52.256;21.048;2022-08-03T07:00:09;41.30;;;31.20;;
58069;SDS011;43863;52.256;21.048;2022-08-03T07:02:39;43.60;;;31.55;;
58069;SDS011;43863;52.256;21.048;2022-08-03T07:05:08;43.75;;;33.03;;
58069;SDS011;43863;52.256;21.048;2022-08-03T07:07:36;42.85;;;32.58;;
58069;SDS011;43863;52.256;21.048;2022-08-03T07:10:05;44.08;;;30.70;;
58069;SDS011;43863;52.256;21.048;2022-08-03T07:12:36;37.78;;;28.38;;
58069;SDS011;43863;52.256;21.048;2022-08-03T07:15:26;45.42;;;30.73;;
58069;SDS011;43863;52.256;21.048;2022-08-03T07:18:17;40.55;;;30.70;;
58069;SDS011;43863;52.256;21.048;2022-08-03T07:21:00;43.55;;;32.08;;
58069;SDS011;43863;52.256;21.048;2022-08-03T07:23:29;52.83;;;34.22;;
58069;SDS011;43863;52.256;21.048;2022-08-03T07:25:57;45.75;;;29.33;;
58069;SDS011;43863;52.256;21.048;2022-08-03T07:28:25;41.80;;;29.55;;
58069;SDS011;43863;52.256;21.048;2022-08-03T07:30:53;36.63;;;27.40;;
58069;SDS011;43863;52.256;21.048;2022-08-03T07:33:25;41.15;;;28.70;;
58069;SDS011;43863;52.256;21.048;2022-08-03T07:35:54;40.72;;;30.10;;
58069;SDS011;43863;52.256;21.048;2022-08-03T07:38:30;43.67;;;31.20;;
58069;SDS011;43863;52.256;21.048;2022-08-03T07:40:58;43.05;;;28.52;;
58069;SDS011;43863;52.256;21.048;2022-08-03T07:43:29;40.08;;;29.08;;
58069;SDS011;43863;52.256;21.048;2022-08-03T07:45:59;44.28;;;29.15;;
58069;SDS011;43863;52.256;21.048;2022-08-03T07:48:26;41.45;;;28.50;;
58069;SDS011;43863;52.256;21.048;2022-08-03T07:50:55;40.40;;;27.77;;
58069;SDS011;43863;52.256;21.048;2022-08-03T07:53:23;44.65;;;27.58;;
58069;SDS011;43863;52.256;21.048;2022-08-03T07:58:44;39.20;;;27.35;;
58069;SDS011;43863;52.256;21.048;2022-08-03T08:01:12;40.63;;;26.60;;
58069;SDS011;43863;52.256;21.048;2022-08-03T08:03:45;44.42;;;26.20;;
58069;SDS011;43863;52.256;21.048;2022-08-03T08:06:23;43.08;;;27.08;;
58069;SDS011;43863;52.256;21.048;2022-08-03T08:08:52;47.72;;;25.45;;
58069;SDS011;43863;52.256;21.048;2022-08-03T08:11:24;51.95;;;25.48;;
58069;SDS011;43863;52.256;21.048;2022-08-03T08:13:54;49.47;;;24.05;;
58069;SDS011;43863;52.256;21.048;2022-08-03T08:16:23;40.92;;;25.80;;
58069;SDS011;43863;52.256;21.048;2022-08-03T08:18:54;45.97;;;24.15;;
58069;SDS011;43863;52.256;21.048;2022-08-03T08:21:26;44.42;;;23.70;;
58069;SDS011;43863;52.256;21.048;2022-08-03T08:24:39;37.97;;;22.65;;
58069;SDS011;43863;52.256;21.048;2022-08-03T08:27:09;39.83;;;22.70;;
58069;SDS011;43863;52.256;21.048;2022-08-03T08:29:39;38.55;;;20.02;;
58069;SDS011;43863;52.256;21.048;2022-08-03T08:32:20;28.42;;;17.45;;
58069;SDS011;43863;52.256;21.048;2022-08-03T08:34:48;35.83;;;18.92;;
58069;SDS011;43863;52.256;21.048;2022-08-03T08:37:17;31.02;;;18.25;;
58069;SDS011;43863;52.256;21.048;2022-08-03T08:39:45;23.60;;;15.38;;
58069;SDS011;43863;52.256;21.048;2022-08-03T08:42:16;27.73;;;15.63;;
58069;SDS011;43863;52.256;21.048;2022-08-03T08:44:44;68.63;;;36.78;;
58069;SDS011;43863;52.256;21.048;2022-08-03T08:47:14;28.00;;;16.75;;
58069;SDS011;43863;52.256;21.048;2022-08-03T08:49:45;36.00;;;15.98;;
58069;SDS011;43863;52.256;21.048;2022-08-03T08:55:30;23.27;;;11.10;;
58069;SDS011;43863;52.256;21.048;2022-08-03T08:58:20;23.33;;;13.10;;
58069;SDS011;43863;52.256;21.048;2022-08-03T09:00:49;22.65;;;11.23;;
58069;SDS011;43863;52.256;21.048;2022-08-03T09:03:18;22.15;;;10.45;;
58069;SDS011;43863;52.256;21.048;2022-08-03T09:06:00;20.70;;;9.95;;
58069;SDS011;43863;52.256;21.048;2022-08-03T09:08:31;16.42;;;9.23;;
58069;SDS011;43863;52.256;21.048;2022-08-03T09:11:06;18.75;;;10.77;;
58069;SDS011;43863;52.256;21.048;2022-08-03T09:13:38;16.38;;;10.65;;
58069;SDS011;43863;52.256;21.048;2022-08-03T09:16:15;21.75;;;11.23;;
58069;SDS011;43863;52.256;21.048;2022-08-03T09:18:47;19.85;;;11.27;;
58069;SDS011;43863;52.256;21.048;2022-08-03T09:24:02;20.58;;;11.20;;
58069;SDS011;43863;52.256;21.048;2022-08-03T09:26:51;22.85;;;13.90;;
58069;SDS011;43863;52.256;21.048;2022-08-03T09:29:24;22.40;;;13.50;;
58069;SDS011;43863;52.256;21.048;2022-08-03T09:32:31;19.27;;;12.48;;
58069;SDS011;43863;52.256;21.048;2022-08-03T09:38:23;17.50;;;11.82;;
58069;SDS011;43863;52.256;21.048;2022-08-03T09:40:55;19.73;;;10.52;;
58069;SDS011;43863;52.256;21.048;2022-08-03T09:43:27;19.92;;;13.15;;
58069;SDS011;43863;52.256;21.048;2022-08-03T09:46:05;17.38;;;10.45;;
58069;SDS011;43863;52.256;21.048;2022-08-03T09:48:35;14.30;;;9.88;;
58069;SDS011;43863;52.256;21.048;2022-08-03T09:51:04;19.02;;;11.60;;
58069;SDS011;43863;52.256;21.048;2022-08-03T09:56:45;12.93;;;9.20;;
58069;SDS011;43863;52.256;21.048;2022-08-03T09:59:21;12.55;;;8.55;;
58069;SDS011;43863;52.256;21.048;2022-08-03T10:01:52;15.93;;;9.75;;
58069;SDS011;43863;52.256;21.048;2022-08-03T10:04:22;19.83;;;10.93;;
58069;SDS011;43863;52.256;21.048;2022-08-03T10:07:24;16.77;;;9.98;;
58069;SDS011;43863;52.256;21.048;2022-08-03T10:09:53;15.73;;;9.90;;
58069;SDS011;43863;52.256;21.048;2022-08-03T10:12:44;17.30;;;10.32;;
58069;SDS011;43863;52.256;21.048;2022-08-03T10:15:15;16.67;;;9.55;;
58069;SDS011;43863;52.256;21.048;2022-08-03T10:18:03;15.65;;;9.77;;
58069;SDS011;43863;52.256;21.048;2022-08-03T10:20:32;18.00;;;10.80;;
58069;SDS011;43863;52.256;21.048;2022-08-03T10:23:09;15.07;;;9.43;;
58069;SDS011;43863;52.256;21.048;2022-08-03T10:25:38;14.20;;;9.07;;
58069;SDS011;43863;52.256;21.048;2022-08-03T10:28:12;15.50;;;9.45;;
58069;SDS011;43863;52.256;21.048;2022-08-03T10:33:51;15.68;;;10.23;;
58069;SDS011;43863;52.256;21.048;2022-08-03T10:36:26;13.27;;;9.23;;
58069;SDS011;43863;52.256;21.048;2022-08-03T10:39:03;12.35;;;9.32;;
58069;SDS011;43863;52.256;21.048;2022-08-03T10:41:43;15.68;;;9.65;;
58069;SDS011;43863;52.256;21.048;2022-08-03T10:44:20;13.90;;;9.23;;
58069;SDS011;43863;52.256;21.048;2022-08-03T10:47:10;14.68;;;10.93;;
58069;SDS011;43863;52.256;21.048;2022-08-03T10:49:42;18.27;;;10.00;;
58069;SDS011;43863;52.256;21.048;2022-08-03T10:52:14;14.80;;;10.30;;
58069;SDS011;43863;52.256;21.048;2022-08-03T10:55:00;13.50;;;9.65;;
58069;SDS011;43863;52.256;21.048;2022-08-03T10:57:49;14.07;;;9.15;;
58069;SDS011;43863;52.256;21.048;2022-08-03T11:00:26;10.88;;;9.02;;
58069;SDS011;43863;52.256;21.048;2022-08-03T11:03:00;13.50;;;9.52;;
58069;SDS011;43863;52.256;21.048;2022-08-03T11:05:35;10.25;;;8.07;;
58069;SDS011;43863;52.256;21.048;2022-08-03T11:14:24;8.88;;;7.25;;
58069;SDS011;43863;52.256;21.048;2022-08-03T11:16:49;10.85;;;7.65;;
58069;SDS011;43863;52.256;21.048;2022-08-03T11:19:19;8.95;;;7.95;;
58069;SDS011;43863;52.256;21.048;2022-08-03T11:21:55;11.57;;;7.80;;
58069;SDS011;43863;52.256;21.048;2022-08-03T11:27:21;11.00;;;7.35;;
58069;SDS011;43863;52.256;21.048;2022-08-03T11:30:00;14.13;;;7.45;;
58069;SDS011;43863;52.256;21.048;2022-08-03T11:32:57;11.57;;;7.32;;
58069;SDS011;43863;52.256;21.048;2022-08-03T11:35:30;11.27;;;8.18;;
58069;SDS011;43863;52.256;21.048;2022-08-03T11:38:03;8.93;;;6.78;;
58069;SDS011;43863;52.256;21.048;2022-08-03T11:47:52;28.50;;;19.55;;
58069;SDS011;43863;52.256;21.048;2022-08-03T11:50:22;13.00;;;9.50;;
58069;SDS011;43863;52.256;21.048;2022-08-03T11:52:51;86.68;;;65.68;;
58069;SDS011;43863;52.256;21.048;2022-08-03T11:55:24;58.75;;;43.50;;
58069;SDS011;43863;52.256;21.048;2022-08-03T11:58:02;44.30;;;32.25;;
58069;SDS011;43863;52.256;21.048;2022-08-03T12:00:51;13.27;;;9.60;;
58069;SDS011;43863;52.256;21.048;2022-08-03T12:03:19;21.60;;;16.38;;
58069;SDS011;43863;52.256;21.048;2022-08-03T12:05:51;20.38;;;15.18;;
58069;SDS011;43863;52.256;21.048;2022-08-03T12:10:56;28.13;;;21.05;;
58069;SDS011;43863;52.256;21.048;2022-08-03T12:13:26;15.73;;;11.77;;
58069;SDS011;43863;52.256;21.048;2022-08-03T12:16:26;23.38;;;17.45;;
58069;SDS011;43863;52.256;21.048;2022-08-03T12:19:04;19.65;;;14.68;;
58069;SDS011;43863;52.256;21.048;2022-08-03T12:21:33;20.33;;;14.02;;
58069;SDS011;43863;52.256;21.048;2022-08-03T12:24:05;17.17;;;13.50;;
58069;SDS011;43863;52.256;21.048;2022-08-03T12:26:49;29.40;;;22.25;;
58069;SDS011;43863;52.256;21.048;2022-08-03T12:29:26;21.92;;;15.75;;
58069;SDS011;43863;52.256;21.048;2022-08-03T12:31:56;19.33;;;12.35;;
58069;SDS011;43863;52.256;21.048;2022-08-03T12:37:13;12.98;;;9.40;;
58069;SDS011;43863;52.256;21.048;2022-08-03T12:39:55;19.77;;;12.20;;
58069;SDS011;43863;52.256;21.048;2022-08-03T12:42:54;14.75;;;9.40;;
58069;SDS011;43863;52.256;21.048;2022-08-03T12:45:24;23.42;;;12.57;;
58069;SDS011;43863;52.256;21.048;2022-08-03T12:48:00;30.83;;;16.38;;
58069;SDS011;43863;52.256;21.048;2022-08-03T12:50:35;13.00;;;8.38;;
58069;SDS011;43863;52.256;21.048;2022-08-03T12:53:27;10.50;;;8.40;;
58069;SDS011;43863;52.256;21.048;2022-08-03T12:56:00;27.77;;;17.42;;
58069;SDS011;43863;52.256;21.048;2022-08-03T12:58:35;31.88;;;12.90;;
58069;SDS011;43863;52.256;21.048;2022-08-03T13:01:04;13.82;;;8.55;;
58069;SDS011;43863;52.256;21.048;2022-08-03T13:03:43;11.05;;;8.30;;
58069;SDS011;43863;52.256;21.048;2022-08-03T13:06:25;10.20;;;8.25;;
58069;SDS011;43863;52.256;21.048;2022-08-03T13:09:06;12.35;;;7.88;;
58069;SDS011;43863;52.256;21.048;2022-08-03T13:14:34;11.30;;;8.17;;
58069;SDS011;43863;52.256;21.048;2022-08-03T13:17:06;23.70;;;14.52;;
58069;SDS011;43863;52.256;21.048;2022-08-03T13:19:36;25.25;;;13.80;;
58069;SDS011;43863;52.256;21.048;2022-08-03T13:22:20;11.95;;;8.98;;
58069;SDS011;43863;52.256;21.048;2022-08-03T13:41:07;40.00;;;24.70;;
58069;SDS011;43863;52.256;21.048;2022-08-03T13:43:58;17.70;;;11.10;;
58069;SDS011;43863;52.256;21.048;2022-08-03T13:46:57;10.80;;;8.30;;
58069;SDS011;43863;52.256;21.048;2022-08-03T13:49:29;12.40;;;8.88;;
58069;SDS011;43863;52.256;21.048;2022-08-03T13:52:06;10.82;;;8.05;;
58069;SDS011;43863;52.256;21.048;2022-08-03T13:54:35;14.35;;;8.70;;
58069;SDS011;43863;52.256;21.048;2022-08-03T14:00:26;15.38;;;10.23;;
58069;SDS011;43863;52.256;21.048;2022-08-03T14:02:58;12.15;;;8.30;;
58069;SDS011;43863;52.256;21.048;2022-08-03T14:05:42;15.15;;;9.27;;
58069;SDS011;43863;52.256;21.048;2022-08-03T14:11:03;17.35;;;12.68;;
58069;SDS011;43863;52.256;21.048;2022-08-03T14:13:33;14.88;;;11.02;;
58069;SDS011;43863;52.256;21.048;2022-08-03T14:19:22;12.65;;;9.13;;
58069;SDS011;43863;52.256;21.048;2022-08-03T14:21:51;14.00;;;10.20;;
58069;SDS011;43863;52.256;21.048;2022-08-03T14:24:33;17.55;;;12.10;;
58069;SDS011;43863;52.256;21.048;2022-08-03T14:27:02;16.05;;;11.93;;
58069;SDS011;43863;52.256;21.048;2022-08-03T14:29:38;15.68;;;11.90;;
58069;SDS011;43863;52.256;21.048;2022-08-03T14:32:07;12.60;;;9.75;;
58069;SDS011;43863;52.256;21.048;2022-08-03T14:37:35;17.13;;;11.48;;
58069;SDS011;43863;52.256;21.048;2022-08-03T14:40:08;13.30;;;9.85;;
58069;SDS011;43863;52.256;21.048;2022-08-03T14:42:38;19.60;;;10.13;;
58069;SDS011;43863;52.256;21.048;2022-08-03T14:45:08;18.92;;;9.50;;
58069;SDS011;43863;52.256;21.048;2022-08-03T14:47:46;14.40;;;8.77;;
58069;SDS011;43863;52.256;21.048;2022-08-03T14:50:34;16.92;;;8.77;;
58069;SDS011;43863;52.256;21.048;2022-08-03T14:53:14;13.55;;;7.43;;
58069;SDS011;43863;52.256;21.048;2022-08-03T14:55:44;12.88;;;7.20;;
58069;SDS011;43863;52.256;21.048;2022-08-03T14:58:20;13.38;;;7.72;;
58069;SDS011;43863;52.256;21.048;2022-08-03T15:00:50;14.13;;;7.90;;
58069;SDS011;43863;52.256;21.048;2022-08-03T15:03:20;11.13;;;7.87;;
58069;SDS011;43863;52.256;21.048;2022-08-03T15:05:55;12.23;;;7.45;;
58069;SDS011;43863;52.256;21.048;2022-08-03T15:08:24;12.38;;;9.02;;
58069;SDS011;43863;52.256;21.048;2022-08-03T15:10:52;13.85;;;9.18;;
58069;SDS011;43863;52.256;21.048;2022-08-03T15:13:21;14.82;;;9.48;;
58069;SDS011;43863;52.256;21.048;2022-08-03T15:15:49;14.77;;;9.68;;
58069;SDS011;43863;52.256;21.048;2022-08-03T15:18:22;14.20;;;9.60;;
58069;SDS011;43863;52.256;21.048;2022-08-03T15:20:50;15.88;;;9.32;;
58069;SDS011;43863;52.256;21.048;2022-08-03T15:23:18;16.52;;;10.40;;
58069;SDS011;43863;52.256;21.048;2022-08-03T15:25:46;12.57;;;8.20;;
58069;SDS011;43863;52.256;21.048;2022-08-03T15:28:34;15.75;;;9.25;;
58069;SDS011;43863;52.256;21.048;2022-08-03T15:31:04;13.98;;;9.27;;
58069;SDS011;43863;52.256;21.048;2022-08-03T15:33:32;14.25;;;9.57;;
58069;SDS011;43863;52.256;21.048;2022-08-03T15:36:02;11.57;;;8.70;;
58069;SDS011;43863;52.256;21.048;2022-08-03T15:38:30;16.17;;;9.23;;
58069;SDS011;43863;52.256;21.048;2022-08-03T15:40:58;14.48;;;9.15;;
58069;SDS011;43863;52.256;21.048;2022-08-03T15:43:26;13.98;;;9.70;;
58069;SDS011;43863;52.256;21.048;2022-08-03T15:49:40;12.20;;;9.15;;
58069;SDS011;43863;52.256;21.048;2022-08-03T15:52:08;11.95;;;9.40;;
58069;SDS011;43863;52.256;21.048;2022-08-03T15:57:30;13.93;;;10.30;;
58069;SDS011;43863;52.256;21.048;2022-08-03T15:59:58;14.02;;;8.88;;
58069;SDS011;43863;52.256;21.048;2022-08-03T16:02:25;13.63;;;8.60;;
58069;SDS011;43863;52.256;21.048;2022-08-03T16:04:53;13.45;;;9.10;;
58069;SDS011;43863;52.256;21.048;2022-08-03T16:07:21;13.55;;;8.82;;
58069;SDS011;43863;52.256;21.048;2022-08-03T16:10:33;12.57;;;8.10;;
58069;SDS011;43863;52.256;21.048;2022-08-03T16:13:01;15.05;;;9.23;;
58069;SDS011;43863;52.256;21.048;2022-08-03T16:15:28;11.52;;;8.63;;
58069;SDS011;43863;52.256;21.048;2022-08-03T16:17:56;14.75;;;8.40;;
58069;SDS011;43863;52.256;21.048;2022-08-03T16:20:24;11.18;;;8.45;;
58069;SDS011;43863;52.256;21.048;2022-08-03T16:23:02;10.93;;;8.65;;
58069;SDS011;43863;52.256;21.048;2022-08-03T16:25:38;16.88;;;10.93;;
58069;SDS011;43863;52.256;21.048;2022-08-03T16:28:06;19.20;;;10.80;;
58069;SDS011;43863;52.256;21.048;2022-08-03T16:30:41;15.70;;;10.27;;
58069;SDS011;43863;52.256;21.048;2022-08-03T16:33:10;16.23;;;10.95;;
58069;SDS011;43863;52.256;21.048;2022-08-03T16:35:45;20.67;;;12.02;;
58069;SDS011;43863;52.256;21.048;2022-08-03T16:41:06;14.25;;;8.68;;
58069;SDS011;43863;52.256;21.048;2022-08-03T16:43:35;12.52;;;8.90;;
58069;SDS011;43863;52.256;21.048;2022-08-03T16:46:04;13.13;;;8.65;;